sensor_id;sensor_type;location;lat;lon;timestamp;temperature;humidity
13848;DHT22;6994;49.752;6.094;2023-07-31T00:01:50;19.10;99.90
13848;DHT22;6994;49.752;6.094;2023-07-31T00:04:17;19.10;99.90
13848;DHT22;6994;49.752;6.094;2023-07-31T00:06:44;19.30;99.90
13848;DHT22;6994;49.752;6.094;2023-07-31T00:09:11;19.30;99.90
13848;DHT22;6994;49.752;6.094;2023-07-31T00:11:38;19.40;99.90
13848;DHT22;6994;49.752;6.094;2023-07-31T00:14:06;19.40;99.90
13848;DHT22;6994;49.752;6.094;2023-07-31T00:16:33;19.30;99.90
13848;DHT22;6994;49.752;6.094;2023-07-31T00:19:00;19.20;99.90
13848;DHT22;6994;49.752;6.094;2023-07-31T00:21:28;19.00;99.90
13848;DHT22;6994;49.752;6.094;2023-07-31T00:23:56;18.90;99.90
13848;DHT22;6994;49.752;6.094;2023-07-31T00:26:24;18.90;99.90
13848;DHT22;6994;49.752;6.094;2023-07-31T00:28:51;18.90;99.90
13848;DHT22;6994;49.752;6.094;2023-07-31T00:31:18;18.90;99.90
13848;DHT22;6994;49.752;6.094;2023-07-31T00:33:46;18.80;99.90
13848;DHT22;6994;49.752;6.094;2023-07-31T00:36:13;18.70;99.90
13848;DHT22;6994;49.752;6.094;2023-07-31T00:38:41;18.80;99.90
13848;DHT22;6994;49.752;6.094;2023-07-31T00:41:08;18.70;99.90
13848;DHT22;6994;49.752;6.094;2023-07-31T00:43:35;18.70;99.90
13848;DHT22;6994;49.752;6.094;2023-07-31T00:46:02;18.70;99.90
13848;DHT22;6994;49.752;6.094;2023-07-31T00:48:30;18.90;99.90
13848;DHT22;6994;49.752;6.094;2023-07-31T00:50:57;18.90;99.90
13848;DHT22;6994;49.752;6.094;2023-07-31T00:53:24;18.90;99.90
13848;DHT22;6994;49.752;6.094;2023-07-31T00:55:51;18.80;99.90
13848;DHT22;6994;49.752;6.094;2023-07-31T00:58:19;18.70;99.90
13848;DHT22;6994;49.752;6.094;2023-07-31T01:00:47;18.70;99.90
13848;DHT22;6994;49.752;6.094;2023-07-31T01:03:15;18.70;99.90
13848;DHT22;6994;49.752;6.094;2023-07-31T01:05:48;18.60;99.90
13848;DHT22;6994;49.752;6.094;2023-07-31T01:09:15;18.60;99.90
13848;DHT22;6994;49.752;6.094;2023-07-31T01:10:49;18.60;99.90
13848;DHT22;6994;49.752;6.094;2023-07-31T01:13:14;18.60;99.90
13848;DHT22;6994;49.752;6.094;2023-07-31T01:15:41;18.50;99.90
13848;DHT22;6994;49.752;6.094;2023-07-31T01:18:09;18.50;99.90
13848;DHT22;6994;49.752;6.094;2023-07-31T01:20:36;18.50;99.90
13848;DHT22;6994;49.752;6.094;2023-07-31T01:31:23;18.70;99.90
13848;DHT22;6994;49.752;6.094;2023-07-31T01:33:46;18.70;99.90
13848;DHT22;6994;49.752;6.094;2023-07-31T01:36:13;18.70;99.90
13848;DHT22;6994;49.752;6.094;2023-07-31T01:38:40;18.90;99.90
13848;DHT22;6994;49.752;6.094;2023-07-31T01:41:07;18.80;99.90
13848;DHT22;6994;49.752;6.094;2023-07-31T01:43:35;18.70;99.90
13848;DHT22;6994;49.752;6.094;2023-07-31T01:46:02;18.70;99.90
13848;DHT22;6994;49.752;6.094;2023-07-31T01:48:29;18.60;99.90
13848;DHT22;6994;49.752;6.094;2023-07-31T01:50:56;18.60;99.90
13848;DHT22;6994;49.752;6.094;2023-07-31T01:53:23;18.50;99.90
13848;DHT22;6994;49.752;6.094;2023-07-31T01:55:51;18.50;99.90
13848;DHT22;6994;49.752;6.094;2023-07-31T01:58:18;18.40;99.90
13848;DHT22;6994;49.752;6.094;2023-07-31T02:00:45;18.40;99.90
13848;DHT22;6994;49.752;6.094;2023-07-31T02:03:12;18.30;99.90
13848;DHT22;6994;49.752;6.094;2023-07-31T02:05:46;18.30;99.90
13848;DHT22;6994;49.752;6.094;2023-07-31T02:08:13;18.30;99.90
13848;DHT22;6994;49.752;6.094;2023-07-31T02:10:40;18.20;99.90
13848;DHT22;6994;49.752;6.094;2023-07-31T02:13:07;18.20;99.90
13848;DHT22;6994;49.752;6.094;2023-07-31T02:15:34;18.20;99.90
13848;DHT22;6994;49.752;6.094;2023-07-31T02:18:01;18.20;99.90
13848;DHT22;6994;49.752;6.094;2023-07-31T02:20:29;18.10;99.90
13848;DHT22;6994;49.752;6.094;2023-07-31T02:22:57;18.10;99.90
13848;DHT22;6994;49.752;6.094;2023-07-31T02:25:25;18.10;99.90
13848;DHT22;6994;49.752;6.094;2023-07-31T02:27:53;18.10;99.90
13848;DHT22;6994;49.752;6.094;2023-07-31T02:30:21;18.00;99.90
13848;DHT22;6994;49.752;6.094;2023-07-31T02:32:49;18.00;99.90
13848;DHT22;6994;49.752;6.094;2023-07-31T02:35:16;18.00;99.90
13848;DHT22;6994;49.752;6.094;2023-07-31T02:37:43;18.00;99.90
13848;DHT22;6994;49.752;6.094;2023-07-31T02:40:10;18.20;99.90
13848;DHT22;6994;49.752;6.094;2023-07-31T02:42:37;18.30;99.90
13848;DHT22;6994;49.752;6.094;2023-07-31T02:45:05;18.50;99.90
13848;DHT22;6994;49.752;6.094;2023-07-31T02:47:33;18.50;99.90
13848;DHT22;6994;49.752;6.094;2023-07-31T02:50:00;18.40;99.90
13848;DHT22;6994;49.752;6.094;2023-07-31T02:52:27;18.40;99.90
13848;DHT22;6994;49.752;6.094;2023-07-31T02:54:54;18.30;99.90
13848;DHT22;6994;49.752;6.094;2023-07-31T02:57:22;18.50;99.90
13848;DHT22;6994;49.752;6.094;2023-07-31T02:59:49;18.50;99.90
13848;DHT22;6994;49.752;6.094;2023-07-31T03:02:17;18.40;99.90
13848;DHT22;6994;49.752;6.094;2023-07-31T03:04:44;18.40;99.90
13848;DHT22;6994;49.752;6.094;2023-07-31T03:07:11;18.60;99.90
13848;DHT22;6994;49.752;6.094;2023-07-31T03:09:38;18.60;99.90
13848;DHT22;6994;49.752;6.094;2023-07-31T03:12:06;18.50;99.90
13848;DHT22;6994;49.752;6.094;2023-07-31T03:14:33;18.50;99.90
13848;DHT22;6994;49.752;6.094;2023-07-31T03:17:00;18.70;99.90
13848;DHT22;6994;49.752;6.094;2023-07-31T03:19:29;18.60;99.90
13848;DHT22;6994;49.752;6.094;2023-07-31T03:21:54;18.60;99.90
13848;DHT22;6994;49.752;6.094;2023-07-31T03:24:22;18.50;99.90
13848;DHT22;6994;49.752;6.094;2023-07-31T03:26:49;18.40;99.90
13848;DHT22;6994;49.752;6.094;2023-07-31T03:29:16;18.40;99.90
13848;DHT22;6994;49.752;6.094;2023-07-31T03:31:43;18.30;99.90
13848;DHT22;6994;49.752;6.094;2023-07-31T03:34:10;18.30;99.90
13848;DHT22;6994;49.752;6.094;2023-07-31T03:36:38;18.20;99.90
13848;DHT22;6994;49.752;6.094;2023-07-31T03:39:06;18.10;99.90
13848;DHT22;6994;49.752;6.094;2023-07-31T03:41:33;18.10;99.90
13848;DHT22;6994;49.752;6.094;2023-07-31T03:44:00;18.10;99.90
13848;DHT22;6994;49.752;6.094;2023-07-31T03:46:27;18.00;99.90
13848;DHT22;6994;49.752;6.094;2023-07-31T03:48:54;18.00;99.90
13848;DHT22;6994;49.752;6.094;2023-07-31T03:51:22;18.00;99.90
13848;DHT22;6994;49.752;6.094;2023-07-31T03:53:49;18.10;99.90
13848;DHT22;6994;49.752;6.094;2023-07-31T03:56:16;18.10;99.90
13848;DHT22;6994;49.752;6.094;2023-07-31T03:58:43;18.30;99.90
13848;DHT22;6994;49.752;6.094;2023-07-31T04:01:10;18.30;99.90
13848;DHT22;6994;49.752;6.094;2023-07-31T04:03:38;18.20;99.90
13848;DHT22;6994;49.752;6.094;2023-07-31T04:06:05;18.20;99.90
13848;DHT22;6994;49.752;6.094;2023-07-31T04:08:33;18.10;99.90
13848;DHT22;6994;49.752;6.094;2023-07-31T04:11:01;18.00;99.90
13848;DHT22;6994;49.752;6.094;2023-07-31T04:13:29;18.00;99.90
13848;DHT22;6994;49.752;6.094;2023-07-31T04:15:56;18.00;99.90
13848;DHT22;6994;49.752;6.094;2023-07-31T04:18:24;18.00;99.90
13848;DHT22;6994;49.752;6.094;2023-07-31T04:20:50;18.20;99.90
13848;DHT22;6994;49.752;6.094;2023-07-31T04:23:18;18.20;99.90
13848;DHT22;6994;49.752;6.094;2023-07-31T04:25:45;18.40;99.90
13848;DHT22;6994;49.752;6.094;2023-07-31T04:28:12;18.40;99.90
13848;DHT22;6994;49.752;6.094;2023-07-31T04:30:39;18.40;99.90
13848;DHT22;6994;49.752;6.094;2023-07-31T04:33:06;18.30;99.90
13848;DHT22;6994;49.752;6.094;2023-07-31T04:35:34;18.30;99.90
13848;DHT22;6994;49.752;6.094;2023-07-31T04:38:01;18.20;99.90
13848;DHT22;6994;49.752;6.094;2023-07-31T04:40:28;18.20;99.90
13848;DHT22;6994;49.752;6.094;2023-07-31T04:42:56;18.20;99.90
13848;DHT22;6994;49.752;6.094;2023-07-31T04:45:23;18.10;99.90
13848;DHT22;6994;49.752;6.094;2023-07-31T04:47:50;18.10;99.90
13848;DHT22;6994;49.752;6.094;2023-07-31T04:50:18;18.10;99.90
13848;DHT22;6994;49.752;6.094;2023-07-31T04:52:46;18.10;99.90
13848;DHT22;6994;49.752;6.094;2023-07-31T04:55:14;18.10;99.90
13848;DHT22;6994;49.752;6.094;2023-07-31T04:57:41;18.10;99.90
13848;DHT22;6994;49.752;6.094;2023-07-31T05:00:08;18.10;99.90
13848;DHT22;6994;49.752;6.094;2023-07-31T05:02:35;18.30;99.90
13848;DHT22;6994;49.752;6.094;2023-07-31T05:05:02;18.40;99.90
13848;DHT22;6994;49.752;6.094;2023-07-31T05:07:30;18.40;99.90
13848;DHT22;6994;49.752;6.094;2023-07-31T05:09:58;18.60;99.90
13848;DHT22;6994;49.752;6.094;2023-07-31T05:12:25;18.60;99.90
13848;DHT22;6994;49.752;6.094;2023-07-31T05:14:52;18.60;99.90
13848;DHT22;6994;49.752;6.094;2023-07-31T05:17:19;18.60;99.90
13848;DHT22;6994;49.752;6.094;2023-07-31T05:19:46;18.70;99.90
13848;DHT22;6994;49.752;6.094;2023-07-31T05:22:14;18.70;99.90
13848;DHT22;6994;49.752;6.094;2023-07-31T05:24:41;18.60;99.90
13848;DHT22;6994;49.752;6.094;2023-07-31T05:27:08;18.50;99.90
13848;DHT22;6994;49.752;6.094;2023-07-31T05:29:35;18.50;99.90
13848;DHT22;6994;49.752;6.094;2023-07-31T05:32:02;18.40;99.90
13848;DHT22;6994;49.752;6.094;2023-07-31T05:34:30;18.30;99.90
13848;DHT22;6994;49.752;6.094;2023-07-31T05:36:58;18.30;99.90
13848;DHT22;6994;49.752;6.094;2023-07-31T05:39:26;18.40;99.90
13848;DHT22;6994;49.752;6.094;2023-07-31T05:41:53;18.40;99.90
13848;DHT22;6994;49.752;6.094;2023-07-31T05:44:20;18.40;99.90
13848;DHT22;6994;49.752;6.094;2023-07-31T05:46:47;18.40;99.90
13848;DHT22;6994;49.752;6.094;2023-07-31T05:49:14;18.40;99.90
13848;DHT22;6994;49.752;6.094;2023-07-31T05:51:42;18.40;99.90
13848;DHT22;6994;49.752;6.094;2023-07-31T05:54:09;18.40;99.90
13848;DHT22;6994;49.752;6.094;2023-07-31T05:56:36;18.40;99.90
13848;DHT22;6994;49.752;6.094;2023-07-31T05:59:03;18.40;99.90
13848;DHT22;6994;49.752;6.094;2023-07-31T06:01:30;18.60;99.90
13848;DHT22;6994;49.752;6.094;2023-07-31T06:03:58;18.70;99.90
13848;DHT22;6994;49.752;6.094;2023-07-31T06:06:26;18.70;99.90
13848;DHT22;6994;49.752;6.094;2023-07-31T06:08:54;19.00;99.90
13848;DHT22;6994;49.752;6.094;2023-07-31T06:11:22;19.10;99.90
13848;DHT22;6994;49.752;6.094;2023-07-31T06:13:50;19.10;99.90
13848;DHT22;6994;49.752;6.094;2023-07-31T06:16:17;19.20;99.90
13848;DHT22;6994;49.752;6.094;2023-07-31T06:18:44;19.20;99.90
13848;DHT22;6994;49.752;6.094;2023-07-31T06:21:11;19.40;99.90
13848;DHT22;6994;49.752;6.094;2023-07-31T06:23:38;19.40;99.90
13848;DHT22;6994;49.752;6.094;2023-07-31T06:26:06;19.60;99.90
13848;DHT22;6994;49.752;6.094;2023-07-31T06:28:33;19.50;99.90
13848;DHT22;6994;49.752;6.094;2023-07-31T06:31:00;19.60;99.90
13848;DHT22;6994;49.752;6.094;2023-07-31T06:33:27;19.60;99.90
13848;DHT22;6994;49.752;6.094;2023-07-31T06:35:54;19.40;99.90
13848;DHT22;6994;49.752;6.094;2023-07-31T06:38:25;19.40;99.90
13848;DHT22;6994;49.752;6.094;2023-07-31T06:40:52;19.20;99.90
13848;DHT22;6994;49.752;6.094;2023-07-31T06:43:20;19.10;99.90
13848;DHT22;6994;49.752;6.094;2023-07-31T06:45:48;19.10;99.90
13848;DHT22;6994;49.752;6.094;2023-07-31T06:48:15;19.10;99.90
13848;DHT22;6994;49.752;6.094;2023-07-31T06:50:43;19.00;99.90
13848;DHT22;6994;49.752;6.094;2023-07-31T06:53:10;19.00;99.90
13848;DHT22;6994;49.752;6.094;2023-07-31T06:55:37;19.30;99.90
13848;DHT22;6994;49.752;6.094;2023-07-31T06:58:04;19.40;99.90
13848;DHT22;6994;49.752;6.094;2023-07-31T07:00:32;19.40;99.90
13848;DHT22;6994;49.752;6.094;2023-07-31T07:02:59;19.40;99.90
13848;DHT22;6994;49.752;6.094;2023-07-31T07:05:26;19.40;99.90
13848;DHT22;6994;49.752;6.094;2023-07-31T07:07:53;19.30;99.90
13848;DHT22;6994;49.752;6.094;2023-07-31T07:10:20;19.30;99.90
13848;DHT22;6994;49.752;6.094;2023-07-31T07:12:48;19.30;99.90
13848;DHT22;6994;49.752;6.094;2023-07-31T07:15:16;19.40;99.90
13848;DHT22;6994;49.752;6.094;2023-07-31T07:17:43;19.40;99.90
13848;DHT22;6994;49.752;6.094;2023-07-31T07:20:10;19.40;99.90
13848;DHT22;6994;49.752;6.094;2023-07-31T07:22:37;19.50;99.90
13848;DHT22;6994;49.752;6.094;2023-07-31T07:25:05;19.50;99.90
13848;DHT22;6994;49.752;6.094;2023-07-31T07:27:32;19.60;99.90
13848;DHT22;6994;49.752;6.094;2023-07-31T07:29:59;19.80;99.90
13848;DHT22;6994;49.752;6.094;2023-07-31T07:32:26;19.90;99.90
13848;DHT22;6994;49.752;6.094;2023-07-31T07:34:53;20.10;99.90
13848;DHT22;6994;49.752;6.094;2023-07-31T07:37:20;20.00;99.90
13848;DHT22;6994;49.752;6.094;2023-07-31T07:39:48;19.90;99.90
13848;DHT22;6994;49.752;6.094;2023-07-31T07:42:15;19.80;99.90
13848;DHT22;6994;49.752;6.094;2023-07-31T07:44:43;19.60;99.90
13848;DHT22;6994;49.752;6.094;2023-07-31T07:47:11;19.60;99.90
13848;DHT22;6994;49.752;6.094;2023-07-31T07:49:38;19.60;99.90
13848;DHT22;6994;49.752;6.094;2023-07-31T07:52:05;19.60;99.90
13848;DHT22;6994;49.752;6.094;2023-07-31T07:54:32;19.70;99.90
13848;DHT22;6994;49.752;6.094;2023-07-31T07:57:00;19.70;99.90
13848;DHT22;6994;49.752;6.094;2023-07-31T07:59:27;19.80;99.90
13848;DHT22;6994;49.752;6.094;2023-07-31T08:01:54;20.00;99.90
13848;DHT22;6994;49.752;6.094;2023-07-31T08:04:21;20.30;99.90
13848;DHT22;6994;49.752;6.094;2023-07-31T08:06:48;20.60;99.90
13848;DHT22;6994;49.752;6.094;2023-07-31T08:09:16;20.70;99.90
13848;DHT22;6994;49.752;6.094;2023-07-31T08:11:43;20.80;99.90
13848;DHT22;6994;49.752;6.094;2023-07-31T08:14:10;21.10;99.90
13848;DHT22;6994;49.752;6.094;2023-07-31T08:16:38;21.30;99.90
13848;DHT22;6994;49.752;6.094;2023-07-31T08:19:04;21.30;99.90
13848;DHT22;6994;49.752;6.094;2023-07-31T08:21:32;21.30;99.90
13848;DHT22;6994;49.752;6.094;2023-07-31T08:24:00;21.20;99.90
13848;DHT22;6994;49.752;6.094;2023-07-31T08:26:28;21.20;99.90
13848;DHT22;6994;49.752;6.094;2023-07-31T08:28:56;21.00;99.90
13848;DHT22;6994;49.752;6.094;2023-07-31T08:31:23;20.90;99.90
13848;DHT22;6994;49.752;6.094;2023-07-31T08:33:51;20.80;99.90
13848;DHT22;6994;49.752;6.094;2023-07-31T08:36:19;20.80;99.90
13848;DHT22;6994;49.752;6.094;2023-07-31T08:38:46;20.70;99.90
13848;DHT22;6994;49.752;6.094;2023-07-31T08:41:13;20.70;99.90
13848;DHT22;6994;49.752;6.094;2023-07-31T08:43:40;20.70;99.90
13848;DHT22;6994;49.752;6.094;2023-07-31T08:46:07;20.80;99.90
13848;DHT22;6994;49.752;6.094;2023-07-31T08:48:35;20.90;99.90
13848;DHT22;6994;49.752;6.094;2023-07-31T08:51:02;21.30;99.90
13848;DHT22;6994;49.752;6.094;2023-07-31T08:53:29;21.50;99.90
13848;DHT22;6994;49.752;6.094;2023-07-31T08:55:56;21.60;99.90
13848;DHT22;6994;49.752;6.094;2023-07-31T08:58:24;21.60;99.90
13848;DHT22;6994;49.752;6.094;2023-07-31T09:00:51;21.60;99.90
13848;DHT22;6994;49.752;6.094;2023-07-31T09:03:19;21.60;99.90
13848;DHT22;6994;49.752;6.094;2023-07-31T09:05:46;21.70;99.90
13848;DHT22;6994;49.752;6.094;2023-07-31T09:08:14;21.70;99.90
13848;DHT22;6994;49.752;6.094;2023-07-31T09:10:44;21.70;99.90
13848;DHT22;6994;49.752;6.094;2023-07-31T09:13:10;21.70;99.90
13848;DHT22;6994;49.752;6.094;2023-07-31T09:15:38;21.70;99.90
13848;DHT22;6994;49.752;6.094;2023-07-31T09:18:06;21.70;99.90
13848;DHT22;6994;49.752;6.094;2023-07-31T09:20:32;22.00;99.90
13848;DHT22;6994;49.752;6.094;2023-07-31T09:23:09;22.00;99.90
13848;DHT22;6994;49.752;6.094;2023-07-31T09:25:32;22.00;99.90
13848;DHT22;6994;49.752;6.094;2023-07-31T09:28:07;22.00;99.90
13848;DHT22;6994;49.752;6.094;2023-07-31T09:30:43;22.00;99.90
13848;DHT22;6994;49.752;6.094;2023-07-31T09:33:03;22.10;99.90
13848;DHT22;6994;49.752;6.094;2023-07-31T09:35:30;22.20;99.90
13848;DHT22;6994;49.752;6.094;2023-07-31T09:37:58;22.30;99.90
13848;DHT22;6994;49.752;6.094;2023-07-31T09:40:27;22.30;99.90
13848;DHT22;6994;49.752;6.094;2023-07-31T09:43:00;22.30;99.90
13848;DHT22;6994;49.752;6.094;2023-07-31T09:45:27;22.20;99.90
13848;DHT22;6994;49.752;6.094;2023-07-31T09:47:55;22.10;99.90
13848;DHT22;6994;49.752;6.094;2023-07-31T09:50:22;21.90;99.90
13848;DHT22;6994;49.752;6.094;2023-07-31T09:52:49;21.70;99.90
13848;DHT22;6994;49.752;6.094;2023-07-31T09:55:16;21.50;99.90
13848;DHT22;6994;49.752;6.094;2023-07-31T09:57:49;21.30;99.90
13848;DHT22;6994;49.752;6.094;2023-07-31T10:00:17;21.10;99.90
13848;DHT22;6994;49.752;6.094;2023-07-31T10:02:46;21.00;99.90
13848;DHT22;6994;49.752;6.094;2023-07-31T10:05:14;20.80;99.90
13848;DHT22;6994;49.752;6.094;2023-07-31T10:07:41;20.70;99.90
13848;DHT22;6994;49.752;6.094;2023-07-31T10:10:08;20.90;99.90
13848;DHT22;6994;49.752;6.094;2023-07-31T10:12:35;21.00;99.90
13848;DHT22;6994;49.752;6.094;2023-07-31T10:15:02;21.30;99.90
13848;DHT22;6994;49.752;6.094;2023-07-31T10:17:30;21.40;99.90
13848;DHT22;6994;49.752;6.094;2023-07-31T10:19:59;21.50;99.90
13848;DHT22;6994;49.752;6.094;2023-07-31T10:22:26;21.80;99.90
13848;DHT22;6994;49.752;6.094;2023-07-31T10:24:54;21.80;99.90
13848;DHT22;6994;49.752;6.094;2023-07-31T10:27:21;21.80;99.90
13848;DHT22;6994;49.752;6.094;2023-07-31T10:29:48;21.80;99.90
13848;DHT22;6994;49.752;6.094;2023-07-31T10:32:15;22.20;99.90
13848;DHT22;6994;49.752;6.094;2023-07-31T10:34:42;22.20;99.90
13848;DHT22;6994;49.752;6.094;2023-07-31T10:37:25;22.20;99.90
13848;DHT22;6994;49.752;6.094;2023-07-31T10:40:02;22.50;99.90
13848;DHT22;6994;49.752;6.094;2023-07-31T10:42:44;22.90;99.90
13848;DHT22;6994;49.752;6.094;2023-07-31T10:45:05;23.10;99.90
13848;DHT22;6994;49.752;6.094;2023-07-31T10:47:38;22.90;99.90
13848;DHT22;6994;49.752;6.094;2023-07-31T10:50:20;22.60;99.90
13848;DHT22;6994;49.752;6.094;2023-07-31T10:52:50;22.30;99.90
13848;DHT22;6994;49.752;6.094;2023-07-31T10:55:33;21.60;99.90
13848;DHT22;6994;49.752;6.094;2023-07-31T10:58:09;21.60;99.90
13848;DHT22;6994;49.752;6.094;2023-07-31T11:00:44;21.30;99.90
13848;DHT22;6994;49.752;6.094;2023-07-31T11:03:15;21.00;99.90
13848;DHT22;6994;49.752;6.094;2023-07-31T11:05:51;20.80;99.90
13848;DHT22;6994;49.752;6.094;2023-07-31T11:08:28;20.80;99.90
13848;DHT22;6994;49.752;6.094;2023-07-31T11:11:05;20.70;99.90
13848;DHT22;6994;49.752;6.094;2023-07-31T11:13:39;20.70;99.90
13848;DHT22;6994;49.752;6.094;2023-07-31T11:16:02;21.20;99.90
13848;DHT22;6994;49.752;6.094;2023-07-31T11:18:29;21.20;99.90
13848;DHT22;6994;49.752;6.094;2023-07-31T11:20:56;21.30;99.90
13848;DHT22;6994;49.752;6.094;2023-07-31T11:23:23;21.20;99.90
13848;DHT22;6994;49.752;6.094;2023-07-31T11:25:51;21.10;99.90
13848;DHT22;6994;49.752;6.094;2023-07-31T11:28:18;21.10;99.90
13848;DHT22;6994;49.752;6.094;2023-07-31T11:30:45;21.30;99.90
13848;DHT22;6994;49.752;6.094;2023-07-31T11:33:12;21.30;99.90
13848;DHT22;6994;49.752;6.094;2023-07-31T11:35:43;21.20;99.90
13848;DHT22;6994;49.752;6.094;2023-07-31T11:38:09;21.30;99.90
13848;DHT22;6994;49.752;6.094;2023-07-31T11:40:43;21.10;99.90
13848;DHT22;6994;49.752;6.094;2023-07-31T11:43:10;20.90;99.90
13848;DHT22;6994;49.752;6.094;2023-07-31T11:45:37;20.60;99.90
13848;DHT22;6994;49.752;6.094;2023-07-31T11:48:04;20.30;99.90
13848;DHT22;6994;49.752;6.094;2023-07-31T11:50:33;19.60;99.90
13848;DHT22;6994;49.752;6.094;2023-07-31T11:53:00;19.20;99.90
13848;DHT22;6994;49.752;6.094;2023-07-31T11:55:27;19.20;99.90
13848;DHT22;6994;49.752;6.094;2023-07-31T11:57:56;19.00;99.90
13848;DHT22;6994;49.752;6.094;2023-07-31T12:00:22;18.80;99.90
13848;DHT22;6994;49.752;6.094;2023-07-31T12:02:50;18.50;99.90
13848;DHT22;6994;49.752;6.094;2023-07-31T12:05:16;18.30;99.90
13848;DHT22;6994;49.752;6.094;2023-07-31T12:07:50;18.20;99.90
13848;DHT22;6994;49.752;6.094;2023-07-31T12:10:26;18.20;99.90
13848;DHT22;6994;49.752;6.094;2023-07-31T12:13:03;18.20;99.90
13848;DHT22;6994;49.752;6.094;2023-07-31T12:15:35;18.20;99.90
13848;DHT22;6994;49.752;6.094;2023-07-31T12:18:05;18.30;99.90
13848;DHT22;6994;49.752;6.094;2023-07-31T12:20:30;18.30;99.90
13848;DHT22;6994;49.752;6.094;2023-07-31T12:22:58;18.40;99.90
13848;DHT22;6994;49.752;6.094;2023-07-31T12:25:31;18.40;99.90
13848;DHT22;6994;49.752;6.094;2023-07-31T12:27:58;18.50;99.90
13848;DHT22;6994;49.752;6.094;2023-07-31T12:30:34;18.70;99.90
13848;DHT22;6994;49.752;6.094;2023-07-31T12:33:04;19.00;99.90
13848;DHT22;6994;49.752;6.094;2023-07-31T12:35:37;19.70;99.90
13848;DHT22;6994;49.752;6.094;2023-07-31T12:38:04;20.40;99.90
13848;DHT22;6994;49.752;6.094;2023-07-31T12:40:31;20.90;99.90
13848;DHT22;6994;49.752;6.094;2023-07-31T12:43:02;21.20;99.90
13848;DHT22;6994;49.752;6.094;2023-07-31T12:45:25;21.50;99.90
13848;DHT22;6994;49.752;6.094;2023-07-31T12:47:53;21.70;99.90
13848;DHT22;6994;49.752;6.094;2023-07-31T12:50:20;21.80;99.90
13848;DHT22;6994;49.752;6.094;2023-07-31T12:52:47;22.20;99.90
13848;DHT22;6994;49.752;6.094;2023-07-31T12:55:14;22.20;99.90
13848;DHT22;6994;49.752;6.094;2023-07-31T12:57:41;22.10;99.90
13848;DHT22;6994;49.752;6.094;2023-07-31T13:00:09;22.00;99.90
13848;DHT22;6994;49.752;6.094;2023-07-31T13:02:36;21.70;99.90
13848;DHT22;6994;49.752;6.094;2023-07-31T13:05:03;21.50;99.90
13848;DHT22;6994;49.752;6.094;2023-07-31T13:07:30;21.20;99.90
13848;DHT22;6994;49.752;6.094;2023-07-31T13:09:58;20.90;99.90
13848;DHT22;6994;49.752;6.094;2023-07-31T13:12:25;21.10;99.90
13848;DHT22;6994;49.752;6.094;2023-07-31T13:14:52;21.00;99.90
13848;DHT22;6994;49.752;6.094;2023-07-31T13:17:19;20.90;99.90
13848;DHT22;6994;49.752;6.094;2023-07-31T13:19:46;20.80;99.90
13848;DHT22;6994;49.752;6.094;2023-07-31T13:22:14;20.60;99.90
13848;DHT22;6994;49.752;6.094;2023-07-31T13:24:42;20.60;99.90
13848;DHT22;6994;49.752;6.094;2023-07-31T13:27:09;20.60;99.90
13848;DHT22;6994;49.752;6.094;2023-07-31T13:29:36;20.60;99.90
13848;DHT22;6994;49.752;6.094;2023-07-31T13:32:03;20.60;99.90
13848;DHT22;6994;49.752;6.094;2023-07-31T13:34:30;20.60;99.90
13848;DHT22;6994;49.752;6.094;2023-07-31T13:36:58;20.80;99.90
13848;DHT22;6994;49.752;6.094;2023-07-31T13:39:26;20.80;99.90
13848;DHT22;6994;49.752;6.094;2023-07-31T13:41:53;20.70;99.90
13848;DHT22;6994;49.752;6.094;2023-07-31T13:44:20;20.60;99.90
13848;DHT22;6994;49.752;6.094;2023-07-31T13:46:47;20.50;99.90
13848;DHT22;6994;49.752;6.094;2023-07-31T13:49:14;20.40;99.90
13848;DHT22;6994;49.752;6.094;2023-07-31T13:51:42;20.50;99.90
13848;DHT22;6994;49.752;6.094;2023-07-31T13:54:09;20.50;99.90
13848;DHT22;6994;49.752;6.094;2023-07-31T13:56:36;20.40;99.90
13848;DHT22;6994;49.752;6.094;2023-07-31T13:59:03;20.50;99.90
13848;DHT22;6994;49.752;6.094;2023-07-31T14:01:30;20.30;99.90
13848;DHT22;6994;49.752;6.094;2023-07-31T14:03:58;20.00;99.90
13848;DHT22;6994;49.752;6.094;2023-07-31T14:06:26;19.50;99.90
13848;DHT22;6994;49.752;6.094;2023-07-31T14:08:53;19.50;99.90
13848;DHT22;6994;49.752;6.094;2023-07-31T14:11:20;19.20;99.90
13848;DHT22;6994;49.752;6.094;2023-07-31T14:13:47;19.10;99.90
13848;DHT22;6994;49.752;6.094;2023-07-31T14:16:14;18.90;99.90
13848;DHT22;6994;49.752;6.094;2023-07-31T14:18:42;18.70;99.90
13848;DHT22;6994;49.752;6.094;2023-07-31T14:21:09;18.60;99.90
13848;DHT22;6994;49.752;6.094;2023-07-31T14:23:36;18.50;99.90
13848;DHT22;6994;49.752;6.094;2023-07-31T14:26:04;18.40;99.90
13848;DHT22;6994;49.752;6.094;2023-07-31T14:28:31;18.40;99.90
13848;DHT22;6994;49.752;6.094;2023-07-31T14:30:58;18.50;99.90
13848;DHT22;6994;49.752;6.094;2023-07-31T14:33:26;18.60;99.90
13848;DHT22;6994;49.752;6.094;2023-07-31T14:35:53;18.90;99.90
13848;DHT22;6994;49.752;6.094;2023-07-31T14:38:20;19.00;99.90
13848;DHT22;6994;49.752;6.094;2023-07-31T14:40:47;19.00;99.90
13848;DHT22;6994;49.752;6.094;2023-07-31T14:43:14;19.00;99.90
13848;DHT22;6994;49.752;6.094;2023-07-31T14:45:42;19.10;99.90
13848;DHT22;6994;49.752;6.094;2023-07-31T14:48:09;19.10;99.90
13848;DHT22;6994;49.752;6.094;2023-07-31T14:50:37;18.90;99.90
13848;DHT22;6994;49.752;6.094;2023-07-31T14:53:05;18.90;99.90
13848;DHT22;6994;49.752;6.094;2023-07-31T14:55:33;18.80;99.90
13848;DHT22;6994;49.752;6.094;2023-07-31T14:58:01;18.70;99.90
13848;DHT22;6994;49.752;6.094;2023-07-31T15:00:29;18.70;99.90
13848;DHT22;6994;49.752;6.094;2023-07-31T15:02:57;18.60;99.90
13848;DHT22;6994;49.752;6.094;2023-07-31T15:05:25;18.50;99.90
13848;DHT22;6994;49.752;6.094;2023-07-31T15:07:52;18.50;99.90
13848;DHT22;6994;49.752;6.094;2023-07-31T15:10:19;18.40;99.90
13848;DHT22;6994;49.752;6.094;2023-07-31T15:12:46;18.30;99.90
13848;DHT22;6994;49.752;6.094;2023-07-31T15:15:14;18.40;99.90
13848;DHT22;6994;49.752;6.094;2023-07-31T15:17:41;18.30;99.90
13848;DHT22;6994;49.752;6.094;2023-07-31T15:20:09;18.40;99.90
13848;DHT22;6994;49.752;6.094;2023-07-31T15:22:35;18.40;99.90
13848;DHT22;6994;49.752;6.094;2023-07-31T15:25:02;18.30;99.90
13848;DHT22;6994;49.752;6.094;2023-07-31T15:27:30;18.20;99.90
13848;DHT22;6994;49.752;6.094;2023-07-31T15:29:57;18.30;99.90
13848;DHT22;6994;49.752;6.094;2023-07-31T15:32:24;18.30;99.90
13848;DHT22;6994;49.752;6.094;2023-07-31T15:34:52;18.20;99.90
13848;DHT22;6994;49.752;6.094;2023-07-31T15:37:20;18.10;99.90
13848;DHT22;6994;49.752;6.094;2023-07-31T15:39:48;18.10;99.90
13848;DHT22;6994;49.752;6.094;2023-07-31T15:42:16;18.10;99.90
13848;DHT22;6994;49.752;6.094;2023-07-31T15:44:43;18.10;99.90
13848;DHT22;6994;49.752;6.094;2023-07-31T15:47:10;18.10;99.90
13848;DHT22;6994;49.752;6.094;2023-07-31T15:49:38;18.10;99.90
13848;DHT22;6994;49.752;6.094;2023-07-31T15:52:05;18.40;99.90
13848;DHT22;6994;49.752;6.094;2023-07-31T15:54:32;18.50;99.90
13848;DHT22;6994;49.752;6.094;2023-07-31T15:57:00;18.50;99.90